createdAt,value
2019-05-23T00:00:55.293Z,10.80
2019-05-23T00:04:01.748Z,10.80
2019-05-23T00:06:53.445Z,10.70
2019-05-23T00:09:42.576Z,10.70
2019-05-23T00:12:47.629Z,10.80
2019-05-23T00:15:27.404Z,10.70
2019-05-23T00:17:59.469Z,10.60
2019-05-23T00:20:32.356Z,10.50
2019-05-23T00:23:05.377Z,10.40
2019-05-23T00:25:36.720Z,10.30
2019-05-23T00:28:09.140Z,10.20
2019-05-23T00:30:54.671Z,10.20
2019-05-23T00:33:35.185Z,10.10
2019-05-23T00:36:07.610Z,10.00
2019-05-23T00:38:39.132Z,10.00
2019-05-23T00:41:11.201Z,9.90
2019-05-23T00:43:42.706Z,9.80
2019-05-23T00:46:14.999Z,9.80
2019-05-23T00:48:46.100Z,9.70
2019-05-23T00:51:16.588Z,9.60
2019-05-23T00:53:47.400Z,9.60
2019-05-23T00:56:18.627Z,9.60
2019-05-23T00:58:50.252Z,9.60
2019-05-23T01:01:22.661Z,9.50
2019-05-23T01:03:54.869Z,9.40
2019-05-23T01:06:25.528Z,9.30
2019-05-23T01:08:57.336Z,9.30
2019-05-23T01:11:28.556Z,9.30
2019-05-23T01:13:59.568Z,9.40
2019-05-23T01:16:32.503Z,9.40
2019-05-23T01:19:03.811Z,9.30
2019-05-23T01:21:52.080Z,9.30
2019-05-23T01:24:29.636Z,9.30
2019-05-23T01:27:00.263Z,9.30
2019-05-23T01:29:37.671Z,9.30
2019-05-23T01:32:13.379Z,9.30
2019-05-23T01:34:44.905Z,9.20
2019-05-23T01:37:17.588Z,9.20
2019-05-23T01:39:48.740Z,9.00
2019-05-23T01:42:19.907Z,8.90
2019-05-23T01:44:52.248Z,8.80
2019-05-23T01:47:23.448Z,8.70
2019-05-23T01:49:54.935Z,8.60
2019-05-23T01:52:26.412Z,8.50
2019-05-23T01:54:57.389Z,8.50
2019-05-23T01:57:28.096Z,8.40
2019-05-23T02:00:10.175Z,8.40
2019-05-23T02:02:31.910Z,8.30
2019-05-23T02:05:03.000Z,8.20
2019-05-23T02:07:33.876Z,8.10
2019-05-23T02:10:05.209Z,8.00
2019-05-23T02:12:36.101Z,8.00
2019-05-23T02:15:08.049Z,7.90
2019-05-23T02:17:41.022Z,7.80
2019-05-23T02:20:14.282Z,7.80
2019-05-23T02:22:44.932Z,7.70
2019-05-23T02:25:16.963Z,7.70
2019-05-23T02:27:48.896Z,7.60
2019-05-23T02:30:33.976Z,7.50
2019-05-23T02:32:54.048Z,7.50
2019-05-23T02:35:25.267Z,7.50
2019-05-23T02:38:14.660Z,7.40
2019-05-23T02:40:51.044Z,7.40
2019-05-23T02:43:23.378Z,7.40
2019-05-23T02:45:58.190Z,7.40
2019-05-23T02:48:35.681Z,7.40
2019-05-23T02:51:13.400Z,7.40
2019-05-23T02:53:44.110Z,7.30
2019-05-23T02:56:17.080Z,7.30
2019-05-23T02:59:03.216Z,7.30
2019-05-23T03:01:59.586Z,7.30
2019-05-23T03:04:30.966Z,7.20
2019-05-23T03:07:03.633Z,7.20
2019-05-23T03:09:36.932Z,7.20
2019-05-23T03:12:11.641Z,7.20
2019-05-23T03:14:42.764Z,7.20
2019-05-23T03:17:17.916Z,7.20
2019-05-23T03:20:01.364Z,7.10
2019-05-23T03:22:40.254Z,7.20
2019-05-23T03:26:01.833Z,7.10
2019-05-23T03:28:39.408Z,7.10
2019-05-23T03:31:29.959Z,7.10
2019-05-23T03:33:48.763Z,7.10
2019-05-23T03:36:19.594Z,7.10
2019-05-23T03:38:51.445Z,7.20
2019-05-23T03:41:22.506Z,7.30
2019-05-23T03:43:54.365Z,7.30
2019-05-23T03:46:27.188Z,7.40
2019-05-23T03:48:58.056Z,7.50
2019-05-23T03:51:28.705Z,7.60
2019-05-23T03:54:01.983Z,7.70
2019-05-23T03:56:33.324Z,7.90
2019-05-23T03:59:06.636Z,8.00
2019-05-23T04:01:47.862Z,8.10
2019-05-23T04:04:13.834Z,8.20
2019-05-23T04:06:45.222Z,8.30
2019-05-23T04:09:16.374Z,8.40
2019-05-23T04:11:46.975Z,8.40
2019-05-23T04:14:18.165Z,8.50
2019-05-23T04:16:49.269Z,8.70
2019-05-23T04:19:19.994Z,8.80
2019-05-23T04:21:55.258Z,8.90
2019-05-23T04:24:29.435Z,9.10
2019-05-23T04:27:00.675Z,9.30
2019-05-23T04:29:32.432Z,9.40
2019-05-23T04:32:08.495Z,9.50
2019-05-23T04:34:38.202Z,9.60
2019-05-23T04:37:08.763Z,9.70
2019-05-23T04:39:39.704Z,9.80
2019-05-23T04:42:13.542Z,9.90
2019-05-23T04:44:50.401Z,10.10
2019-05-23T04:50:03.855Z,10.30
2019-05-23T04:52:34.592Z,10.40
2019-05-23T04:55:06.592Z,10.50
2019-05-23T04:57:37.766Z,10.70
2019-05-23T05:00:17.358Z,10.80
2019-05-23T05:02:49.633Z,10.90
2019-05-23T05:05:26.237Z,11.10
2019-05-23T05:07:57.761Z,11.20
2019-05-23T05:10:35.479Z,11.40
2019-05-23T05:13:08.354Z,11.40
2019-05-23T05:20:55.840Z,11.80
2019-05-23T05:23:26.735Z,11.70
2019-05-23T05:25:57.842Z,11.70
2019-05-23T05:28:58.580Z,11.80
2019-05-23T05:31:34.969Z,11.80
2019-05-23T05:34:14.794Z,12.10
2019-05-23T05:36:51.854Z,12.40
2019-05-23T05:39:30.998Z,12.40
2019-05-23T05:42:01.584Z,12.50
2019-05-23T05:44:32.916Z,12.80
2019-05-23T05:47:04.276Z,12.70
2019-05-23T05:49:36.014Z,12.80
2019-05-23T05:57:55.806Z,12.40
2019-05-23T06:00:58.232Z,12.50
2019-05-23T06:03:31.309Z,12.60
2019-05-23T06:06:38.201Z,12.70
2019-05-23T06:12:27.340Z,12.50
2019-05-23T06:14:58.160Z,12.70
2019-05-23T06:20:56.587Z,12.90
2019-05-23T06:26:03.726Z,12.90
2019-05-23T06:31:18.948Z,12.80
2019-05-23T06:33:55.518Z,12.80
2019-05-23T06:36:27.939Z,12.80
2019-05-23T06:38:58.516Z,12.90
2019-05-23T06:41:29.110Z,13.10
2019-05-23T06:44:04.186Z,13.10
2019-05-23T06:49:11.049Z,13.80
2019-05-23T06:51:41.548Z,14.30
2019-05-23T06:54:12.606Z,14.10
2019-05-23T06:56:43.095Z,13.80
2019-05-23T06:59:13.930Z,14.10
2019-05-23T07:01:48.382Z,14.40
2019-05-23T07:04:23.104Z,14.40
2019-05-23T07:06:53.983Z,14.10
2019-05-23T07:09:24.880Z,13.90
2019-05-23T07:11:58.504Z,14.00
2019-05-23T07:14:30.340Z,13.80
2019-05-23T07:17:00.927Z,14.20
2019-05-23T07:22:13.009Z,14.00
2019-05-23T07:24:57.625Z,14.00
2019-05-23T07:27:18.996Z,13.90
2019-05-23T07:29:49.735Z,13.80
2019-05-23T07:32:25.464Z,13.70
2019-05-23T07:34:57.642Z,13.40
2019-05-23T07:37:37.749Z,13.50
2019-05-23T07:40:13.928Z,13.50
2019-05-23T07:42:45.012Z,13.60
2019-05-23T07:45:19.068Z,13.70
2019-05-23T07:47:55.651Z,13.90
2019-05-23T07:50:31.035Z,13.90
2019-05-23T07:53:01.812Z,14.00
2019-05-23T07:55:38.703Z,13.90
2019-05-23T08:00:55.140Z,14.30
2019-05-23T08:03:29.296Z,14.30
2019-05-23T08:06:03.718Z,14.40
2019-05-23T08:08:39.790Z,14.40
2019-05-23T08:11:13.153Z,14.50
2019-05-23T08:13:44.272Z,14.50
2019-05-23T08:16:24.650Z,14.50
2019-05-23T08:18:55.240Z,14.50
2019-05-23T08:21:25.926Z,14.60
2019-05-23T08:23:56.798Z,14.70
2019-05-23T08:29:25.452Z,14.70
2019-05-23T08:31:42.402Z,14.90
2019-05-23T08:42:15.689Z,14.90
2019-05-23T08:44:47.180Z,14.90
2019-05-23T08:47:23.983Z,15.00
2019-05-23T08:50:09.405Z,15.10
2019-05-23T08:52:43.608Z,15.20
2019-05-23T08:55:26.549Z,15.00
2019-05-23T08:57:59.966Z,15.00
2019-05-23T09:00:32.381Z,15.10
2019-05-23T09:03:03.845Z,15.10
2019-05-23T09:05:41.621Z,15.10
2019-05-23T09:08:22.779Z,15.20
2019-05-23T09:10:54.287Z,15.10
2019-05-23T09:16:17.670Z,15.30
2019-05-23T09:18:48.243Z,15.40
2019-05-23T09:21:19.578Z,15.30
2019-05-23T09:23:50.201Z,15.00
2019-05-23T09:26:21.276Z,15.40
2019-05-23T09:28:54.968Z,15.40
2019-05-23T09:31:27.627Z,15.40
2019-05-23T09:34:02.243Z,15.40
2019-05-23T09:36:33.434Z,15.40
2019-05-23T09:39:08.200Z,15.50
2019-05-23T09:41:39.231Z,15.30
2019-05-23T09:44:10.109Z,15.30
2019-05-23T09:46:41.191Z,15.50
2019-05-23T09:49:18.566Z,15.50
2019-05-23T09:51:54.558Z,15.50
2019-05-23T09:54:32.883Z,15.60
2019-05-23T09:57:05.505Z,15.80
2019-05-23T10:02:13.323Z,16.00
2019-05-23T10:04:44.128Z,16.10
2019-05-23T10:07:18.261Z,16.30
2019-05-23T10:09:48.932Z,16.40
2019-05-23T10:12:22.508Z,16.40
2019-05-23T10:14:53.901Z,16.60
2019-05-23T10:17:31.104Z,16.50
2019-05-23T10:20:05.460Z,16.50
2019-05-23T10:22:46.582Z,16.50
2019-05-23T10:25:21.260Z,16.40
2019-05-23T10:27:57.900Z,16.40
2019-05-23T10:30:29.729Z,16.40
2019-05-23T10:33:11.409Z,16.30
2019-05-23T10:35:38.286Z,16.40
2019-05-23T10:38:09.706Z,16.10
2019-05-23T10:40:41.465Z,16.50
2019-05-23T10:43:14.032Z,16.70
2019-05-23T10:45:48.097Z,16.60
2019-05-23T10:48:21.464Z,16.80
2019-05-23T10:50:58.034Z,17.00
2019-05-23T10:53:29.001Z,17.10
2019-05-23T10:56:10.088Z,17.10
2019-05-23T12:01:40.630Z,18.30
2019-05-23T12:04:39.298Z,18.30
2019-05-23T12:08:07.685Z,18.20
2019-05-23T12:10:53.425Z,18.30
2019-05-23T12:18:49.541Z,18.60
2019-05-23T12:21:29.131Z,18.60
2019-05-23T12:24:05.106Z,18.50
2019-05-23T12:26:41.169Z,18.80
2019-05-23T12:29:15.463Z,18.80
2019-05-23T12:31:49.640Z,19.20
2019-05-23T12:34:19.805Z,19.30
2019-05-23T12:36:50.401Z,19.50
2019-05-23T12:39:28.274Z,20.00
2019-05-23T12:41:59.116Z,20.40
2019-05-23T12:44:35.990Z,21.00
2019-05-23T12:47:25.641Z,21.40
2019-05-23T12:50:17.310Z,22.00
2019-05-23T12:52:52.713Z,21.50
2019-05-23T12:55:31.821Z,21.70
2019-05-23T13:02:57.200Z,24.80
2019-05-23T13:05:36.823Z,24.80
2019-05-23T13:14:08.707Z,24.30
2019-05-23T13:17:33.948Z,23.90
2019-05-23T13:25:34.745Z,23.10
2019-05-23T13:28:09.608Z,22.30
2019-05-23T13:44:38.150Z,22.50
2019-05-23T13:49:54.795Z,23.00
2019-05-23T13:58:51.427Z,22.60
2019-05-23T14:01:28.532Z,23.00
2019-05-23T14:04:12.073Z,22.80
2019-05-23T14:12:24.462Z,23.10
2019-05-23T14:14:50.362Z,23.50
2019-05-23T14:17:29.303Z,23.10
2019-05-23T14:20:06.735Z,22.30
2019-05-23T14:22:47.497Z,23.10
2019-05-23T17:32:34.121Z,15.60
2019-05-23T17:43:05.929Z,15.60
2019-05-23T18:02:08.787Z,15.40
2019-05-23T18:05:28.108Z,15.30
2019-05-23T18:12:19.011Z,15.30
2019-05-23T18:15:33.982Z,15.10
2019-05-23T18:18:46.325Z,15.00
2019-05-23T18:21:38.219Z,14.90
2019-05-23T18:24:31.910Z,14.70
2019-05-23T18:27:12.924Z,14.70
2019-05-23T18:29:47.096Z,14.50
2019-05-23T18:32:25.996Z,14.40
2019-05-23T18:34:57.141Z,14.50
2019-05-23T18:37:30.868Z,14.40
2019-05-23T18:40:02.968Z,14.30
2019-05-23T18:42:34.101Z,14.30
2019-05-23T18:45:07.265Z,14.10
2019-05-23T18:50:18.240Z,14.00
2019-05-23T18:52:58.647Z,13.80
2019-05-23T18:55:29.962Z,13.70
2019-05-23T18:58:03.090Z,13.60
2019-05-23T19:01:00.586Z,13.50
2019-05-23T19:03:33.323Z,13.30
2019-05-23T19:06:35.587Z,13.20
2019-05-23T19:09:11.676Z,13.20
2019-05-23T19:11:42.711Z,13.10
2019-05-23T19:14:13.155Z,13.00
2019-05-23T19:16:44.202Z,13.00
2019-05-23T19:21:51.967Z,12.80
2019-05-23T19:24:22.626Z,12.70
2019-05-23T19:26:53.626Z,12.70
2019-05-23T19:29:24.162Z,12.60
2019-05-23T19:31:55.192Z,12.60
2019-05-23T19:34:26.617Z,12.50
2019-05-23T19:36:57.627Z,12.40
2019-05-23T19:39:28.906Z,12.40
2019-05-23T19:42:00.748Z,12.30
2019-05-23T19:44:31.561Z,12.20
2019-05-23T19:47:05.288Z,12.20
2019-05-23T19:49:36.813Z,12.20
2019-05-23T19:52:12.734Z,12.10
2019-05-23T19:54:49.903Z,12.00
2019-05-23T19:57:30.613Z,12.00
2019-05-23T20:00:00.016Z,12.00
2019-05-23T20:02:39.640Z,12.00
2019-05-23T20:05:16.098Z,12.00
2019-05-23T20:07:47.603Z,12.00
2019-05-23T20:10:28.859Z,12.00
2019-05-23T20:13:03.893Z,12.00
2019-05-23T20:15:40.003Z,11.90
2019-05-23T20:18:14.001Z,11.90
2019-05-23T20:20:45.046Z,11.80
2019-05-23T20:23:18.179Z,11.80
2019-05-23T20:25:50.947Z,11.70
2019-05-23T20:30:58.916Z,11.60
2019-05-23T20:33:42.911Z,11.50
2019-05-23T20:36:17.807Z,11.50
2019-05-23T20:38:49.213Z,11.50
2019-05-23T20:41:21.220Z,11.40
2019-05-23T20:43:52.701Z,11.40
2019-05-23T20:46:24.488Z,11.50
2019-05-23T20:48:55.957Z,11.50
2019-05-23T20:51:27.022Z,11.50
2019-05-23T20:53:57.729Z,11.40
2019-05-23T20:56:28.727Z,11.50
2019-05-23T20:59:02.944Z,11.50
2019-05-23T21:01:43.128Z,11.60
2019-05-23T21:04:14.683Z,11.60
2019-05-23T21:06:45.852Z,11.60
2019-05-23T21:09:16.802Z,11.50
2019-05-23T21:11:48.238Z,11.40
2019-05-23T21:14:26.274Z,11.50
2019-05-23T21:17:02.009Z,11.40
2019-05-23T21:19:32.975Z,11.40
2019-05-23T21:22:08.145Z,11.30
2019-05-23T21:24:42.358Z,11.30
2019-05-23T21:27:22.392Z,11.20
2019-05-23T21:30:00.933Z,11.20
2019-05-23T21:32:32.411Z,11.20
2019-05-23T21:35:08.889Z,11.10
2019-05-23T21:37:39.848Z,11.10
2019-05-23T21:40:15.022Z,11.10
2019-05-23T21:42:48.186Z,11.00
2019-05-23T21:45:19.663Z,11.00
2019-05-23T21:47:50.948Z,11.00
2019-05-23T21:50:22.215Z,11.10
2019-05-23T21:52:56.554Z,11.00
2019-05-23T21:55:36.314Z,11.00
2019-05-23T21:58:08.385Z,10.90
2019-05-23T22:01:25.094Z,10.90
2019-05-23T22:04:09.716Z,11.00
2019-05-23T22:06:41.959Z,10.90
2019-05-23T22:09:15.997Z,10.90
2019-05-23T22:11:47.979Z,10.90
2019-05-23T22:14:19.448Z,10.90
2019-05-23T22:16:50.433Z,10.90
2019-05-23T22:19:23.912Z,11.00
2019-05-23T22:21:55.448Z,11.10
2019-05-23T22:24:26.773Z,11.10
2019-05-23T22:26:58.855Z,11.20
2019-05-23T22:29:34.627Z,11.20
2019-05-23T22:32:11.469Z,11.20
2019-05-23T22:34:51.196Z,11.30
2019-05-23T22:37:28.952Z,11.40
2019-05-23T22:40:03.437Z,11.40
2019-05-23T22:42:36.899Z,11.40
2019-05-23T22:45:13.196Z,11.40
2019-05-23T22:47:47.169Z,11.40
2019-05-23T22:50:19.853Z,11.40
2019-05-23T22:52:52.049Z,11.30
2019-05-23T22:55:23.652Z,11.40
2019-05-23T22:57:54.919Z,11.40
2019-05-23T23:00:33.190Z,11.40
2019-05-23T23:03:12.189Z,11.50
2019-05-23T23:05:43.530Z,11.40
2019-05-23T23:08:14.429Z,11.30
2019-05-23T23:10:45.277Z,11.20
2019-05-23T23:13:16.844Z,11.10
2019-05-23T23:15:47.971Z,11.10
2019-05-23T23:18:19.126Z,11.00
2019-05-23T23:20:53.215Z,10.90
2019-05-23T23:23:24.845Z,10.80
2019-05-23T23:25:56.360Z,10.70
2019-05-23T23:28:28.381Z,10.60
2019-05-23T23:31:00.386Z,10.50
2019-05-23T23:33:31.834Z,10.50
2019-05-23T23:36:03.004Z,10.40
2019-05-23T23:38:34.312Z,10.40
2019-05-23T23:41:05.509Z,10.30
2019-05-23T23:43:36.882Z,10.20
2019-05-23T23:46:25.754Z,10.20
2019-05-23T23:49:13.894Z,10.20
2019-05-23T23:52:02.747Z,10.10
2019-05-23T23:54:51.220Z,10.00
2019-05-23T23:57:40.090Z,9.90
